Station 45187 - Winthrop Harbor Buoy, IL Image indicating link to RSS feed of recent meteorological observations for station 45187


Conditions at 45187 as of
(8:20 pm CDT on 06/22/2024)
0120 GMT on 06/23/2024:
     

Click on the graph icon in the table below to see a time series plot of the last five days of that observation.

5-day plot - Wind Direction Wind Direction (WDIR): S ( 180 deg true )
5-day plot - Wind Speed Wind Speed (WSPD): 15.5 kts
5-day plot - Wind Gust Wind Gust (GST): 23.3 kts
5-day plot - Wave Height Wave Height (WVHT): 1.3 ft
5-day plot - Dominant Wave Period Dominant Wave Period (DPD): 3 sec
5-day plot - Mean Wave Direction Mean Wave Direction (MWD):SSW ( 202 deg true )
5-day plot - Air Temperature Air Temperature (ATMP): 75.0 °F
5-day plot - Water Temperature Water Temperature (WTMP): 57.2 °F
5-day plot - Wind Speed at 10 Meters Wind Speed at 10 meters (WSPD10M): 19.4 kts
5-day plot - Wind Speed at 20 Meters Wind Speed at 20 meters (WSPD20M): 21.4 kts
5-day plot -  Wind Speed, Wind Gust and Atmospheric Pressure Combined plot of Wind Speed, Gust, and Air Pressure
Previous observations
TIME
(CDT)
5-day plot - Wind Direction
WDIR
 
5-day plot - Wind Speed
WSPD
kts
5-day plot - Wind Gust
GST
kts
5-day plot - Wave Height
WVHT
ft
5-day plot - Dominant Wave Period
DPD
sec
5-day plot - Average Wave Period
APD
sec
5-day plot - Mean Wave Direction
MWD
 
5-day plot - Atmospheric Pressure
PRES
in
5-day plot - Pressure Tendency
PTDY
in
5-day plot - Air Temperature
ATMP
°F
5-day plot - Water Temperature
WTMP
°F
5-day plot - Dew Point
DEWP
°F
5-day plot - Salinity
SAL
psu
5-day plot - Visibility
VIS
nmi
5-day plot - Tide (above MLLW)
TIDE
ft
2024-06-22 08:10 pm S 15.5 23.3 1.3 3-SSW-- 76.5 57.4----
2024-06-22 07:50 pmWSW 15.5 25.3 1.0 2-SSW-- 78.1 57.4----
2024-06-22 07:40 pmSSE 11.7 21.4 1.0 2-SSW-- 74.5 57.4----
2024-06-22 07:30 pm S 9.7 15.5 1.0 2-SSW-- 74.7 57.4----
2024-06-22 07:20 pm S 11.7 21.4 1.0 2-SSW-- 75.7 57.4----
2024-06-22 07:10 pm S 11.7 15.5 1.0 2-SSW-- 75.4 57.4----
2024-06-22 06:50 pm S 9.7 13.6 1.0 3- S-- 72.1 57.4----
2024-06-22 06:40 pm S 7.8 13.6 1.0 3- S-- 70.7 57.4----
2024-06-22 06:30 pm S 11.7 15.5 1.0 3- S-- 74.7 57.6----
2024-06-22 06:20 pmSSW 13.6 21.4 0.7-- S-- 76.5 57.6----
2024-06-22 06:10 pm S 11.7 15.5 0.7--SSE-- 72.5 57.6----
2024-06-22 05:50 pm S 7.8 9.7 0.7-- SE-- 66.4 57.6----
2024-06-22 05:40 pm S 7.8 9.7 0.7-- S-- 66.2 57.6----
2024-06-22 05:30 pmSSE 5.8 7.8 0.7--SSE-- 65.8 57.6----
2024-06-22 05:20 pm S 5.8 5.8 0.7--SSE-- 65.8 57.6----
2024-06-22 05:10 pm S 5.8 7.8 0.7--SSE-- 66.4 57.4----
2024-06-22 04:50 pmSSW 5.8 7.8 0.7--SSE-- 66.4 57.4----
2024-06-22 04:40 pm SW 5.8 7.8 1.0 3-SSE-- 68.0 57.4----
2024-06-22 04:30 pmWSW 7.8 9.7 1.0 3-SSE-- 70.2 57.6----
2024-06-22 04:20 pm W 9.7 17.5 1.0 3-SSE-- 70.7 57.6----
2024-06-22 04:10 pm W 11.7 19.4 1.0 3-SSE-- 73.0 57.6----
2024-06-22 03:50 pmWSW 7.8 9.7 1.0 4- SE-- 73.2 57.6----
2024-06-22 03:40 pmWSW 7.8 11.7 1.0 3-SSE-- 73.6 57.4----
2024-06-22 03:30 pmWSW 7.8 11.7 1.0 3-SSE-- 72.1 57.4----
2024-06-22 03:20 pmSSW 7.8 9.7 1.0 3-SSE-- 71.6 57.4----
2024-06-22 03:10 pmSSW 7.8 9.7 1.0 3-SSE-- 70.9 57.4----
2024-06-22 02:50 pmSSW 9.7 13.6 1.0 3-SSE-- 72.5 57.2----
2024-06-22 02:40 pmSSW 11.7 17.5 1.0 3-SSE-- 74.5 57.4----
2024-06-22 02:30 pm SW 11.7 19.4 1.0 3- SE-- 75.0 57.4----
2024-06-22 02:20 pm SW 9.7 13.6 1.0 3- SE-- 74.5 57.7----
2024-06-22 02:10 pm SW 9.7 13.6 1.0 3-SSE-- 74.8 57.7----
2024-06-22 01:50 pmWSW 11.7 21.4 1.0 3-SSE-- 77.4 57.9----
2024-06-22 01:40 pm SW 9.7 17.5 1.0 3- SE-- 76.3 57.9----
2024-06-22 01:30 pm SW 9.7 13.6 1.0 3- SE-- 76.3 58.1----
2024-06-22 01:20 pm SW 9.7 15.5 1.0 2-SSE-- 75.9 58.3----
2024-06-22 01:10 pmSSW 5.8 13.6 1.0 3-SSE-- 74.7 58.5----
2024-06-22 12:50 pmSSW 7.8 11.7 1.0 3-SSE-- 74.5 59.2----
2024-06-22 12:40 pm SW 7.8 13.6 1.0 4-NNE-- 76.5 59.4----
2024-06-22 12:30 pmSSW 7.8 13.6 1.0 3-SSE-- 75.2 59.7----
2024-06-22 12:20 pm SW 7.8 11.7 1.0 3-SSE-- 74.5 60.1----
2024-06-22 12:10 pmSSW 7.8 13.6 1.0 2- S-- 75.0 60.3----
2024-06-22 11:50 am S 11.7 15.5 1.0 2-SSW-- 75.6 60.8----
2024-06-22 11:40 am SW 11.7 17.5 1.0 2- S-- 76.5 61.2----
2024-06-22 11:30 amSSW 15.5 21.4 0.7-- S-- 77.7 61.3----
2024-06-22 11:20 am S 11.7 19.4 1.0 4- NE-- 74.7 61.3----
2024-06-22 11:10 am SW 7.8 13.6 1.0 4- NE-- 73.2 61.5----
2024-06-22 10:50 amSSW 11.7 15.5 1.0 4- NE-- 74.8 61.7----
2024-06-22 10:40 am S 11.7 19.4 1.0 4- NE-- 74.1 61.9----
2024-06-22 10:30 am S 11.7 13.6 0.7-- NE-- 73.6 61.7----
2024-06-22 10:20 am S 7.8 15.5 1.0 4- NE-- 68.4 61.7----
2024-06-22 10:10 am S 7.8 9.7 1.0 4- NE-- 66.2 61.7----
2024-06-22 09:50 am S 7.8 9.7 1.0 4- NE-- 64.9 61.7----
2024-06-22 09:40 am S 7.8 9.7 1.0 4- NE-- 64.6 61.5----
2024-06-22 09:30 amSSE 5.8 7.8 1.0 4- NE-- 64.2 61.7----
2024-06-22 09:20 am S 5.8 7.8 0.7-- NE-- 64.0 61.7----
2024-06-22 09:10 am S 5.8 7.8 0.7-- NE-- 64.0 61.5----
2024-06-22 08:50 am S 5.8 7.8 0.7-- NE-- 64.4 61.5----
2024-06-22 08:40 amSSW 5.8 7.8 0.7--NNE-- 64.4 61.7----
2024-06-22 08:30 am S 5.8 7.8 1.0 4-NNE-- 64.6 61.7----
2024-06-22 08:20 am SE 5.8 7.8 0.7--NNE-- 64.8 61.7----
2024-06-22 08:10 am SE 5.8 7.8 0.7--NNE-- 64.4 61.9----
2024-06-22 07:50 amESE 3.9 5.8 0.7--NNE-- 64.4 61.9----
2024-06-22 07:40 am SE 3.9 5.8 1.0 4-NNE-- 64.4 61.7----
2024-06-22 07:30 am SE 3.9 5.8 0.7--NNE-- 64.4 61.5----
2024-06-22 07:20 am SE 5.8 5.8 1.0 4-NNE-- 64.2 61.9----
2024-06-22 07:10 amESE 3.9 5.8 1.0 4-NNE-- 64.0 61.9----
2024-06-22 06:50 am E 1.9 3.9 1.0 4-NNE-- 63.9 62.1----
2024-06-22 06:40 am E 1.9 3.9 1.0 4-NNE-- 63.9 62.1----
2024-06-22 06:30 am E 1.9 3.9 1.0 4-NNE-- 63.9 62.1----
2024-06-22 06:20 am E 3.9 3.9 1.0 4-NNE-- 63.9 62.2----
2024-06-22 06:10 amESE 1.9 3.9 1.0 4-NNE-- 63.7 62.2----
2024-06-22 05:50 am NW 1.9 3.9 1.3 4-NNE-- 63.3 62.2----
2024-06-22 05:40 amNNW 3.9 5.8 1.0 4-NNE-- 63.9 62.2----
2024-06-22 05:30 am N 3.9 3.9 1.0 4- NE-- 64.4 62.2----
2024-06-22 05:20 amNNE 3.9 3.9 1.0 4- NE-- 64.8 62.2----
2024-06-22 05:10 amNNE 3.9 5.8 1.0 4- NE-- 64.0 62.2----
2024-06-22 04:50 am N 1.9 3.9 1.0 4- NE-- 64.2 62.2----
2024-06-22 04:40 am NW 1.9 3.9 1.0 4- NE-- 63.9 62.4----
2024-06-22 04:30 amWSW 3.9 5.8 1.0 4- NE-- 63.5 62.4----
2024-06-22 04:20 am SW 3.9 5.8 1.0 4- NE-- 63.3 62.4----
2024-06-22 04:10 am S 3.9 7.8 1.0 4- NE-- 63.7 62.6----
2024-06-22 03:50 amESE 7.8 11.7 1.0 4- NE-- 63.9 62.8----
2024-06-22 03:40 am SE 9.7 13.6 1.0 3- NE-- 63.7 62.8----
2024-06-22 03:30 amSSE 5.8 9.7 1.0 4- NE-- 63.3 62.8----
2024-06-22 03:20 am S 3.9 3.9 1.0 4- NE-- 63.3 62.8----
2024-06-22 03:10 amSSE 3.9 5.8 1.0 3- NE-- 63.3 62.6----
2024-06-22 02:50 amSSE 3.9 7.8 1.3 4- NE-- 63.1 62.6----
2024-06-22 02:40 amSSE 3.9 5.8 1.3 4-NNE-- 63.1 62.4----
2024-06-22 02:30 am SW 1.9 3.9 1.3 3- N-- 63.1 62.6----
2024-06-22 02:20 amWSW 3.9 5.8 1.3 3- N-- 63.3 62.6----
2024-06-22 02:10 am W 7.8 13.6 1.3 3- N-- 62.8 62.8----
2024-06-22 01:50 amWNW 3.9 5.8 1.3 3- N-- 61.5 62.8----
2024-06-22 01:40 amWNW 3.9 5.8 1.3 3- N-- 61.5 62.4----
2024-06-22 01:30 am NW 3.9 5.8 1.3 3- N-- 61.3 62.2----
2024-06-22 01:20 am NW 3.9 5.8 1.3 3- N-- 61.2 62.1----
2024-06-22 01:00 am NW 3.9 5.8 1.3 3- N-- 60.8 62.1----
2024-06-22 12:50 am NW 3.9 7.8 1.6 3- N-- 61.2 62.1----
2024-06-22 12:40 amNNW 5.8 7.8 1.6 3- N-- 61.3 62.1----
2024-06-22 12:30 amNNW 5.8 9.7 1.6 3- N-- 61.5 62.1----
2024-06-22 12:20 amNNW 5.8 9.7 1.3 3-NNW-- 61.3 62.2----
2024-06-22 12:00 amNNW 7.8 9.7 1.3 3- N-- 61.2 62.1----
2024-06-21 11:50 pmNNW 5.8 7.8 1.6 3- N-- 61.2 62.1----
2024-06-21 11:40 pmNNW 5.8 9.7 1.6 3- N-- 61.2 62.1----
2024-06-21 11:30 pmNNW 7.8 9.7 1.6 3- N-- 61.5 62.1----
2024-06-21 11:20 pmNNW 9.7 11.7 1.6 3- N-- 61.7 61.9----
2024-06-21 11:00 pmNNW 9.7 13.6 1.6 3- N-- 61.9 62.1----
2024-06-21 10:50 pm N 9.7 13.6 1.3 3- N-- 62.2 62.2----
2024-06-21 10:40 pm N 9.7 13.6 1.3 3- N-- 62.2 62.2----
2024-06-21 10:30 pmNNW 9.7 11.7 1.3 3- N-- 62.1 62.2----
2024-06-21 10:20 pmNNW 7.8 11.7 1.3 3- N-- 61.7 62.2----
2024-06-21 10:00 pm NW 5.8 9.7 1.6 3- N-- 61.2 62.4----
2024-06-21 09:50 pmNNW 5.8 9.7 1.3 3- N-- 61.5 62.4----
2024-06-21 09:40 pmNNW 7.8 9.7 1.6 3- N-- 61.5 62.4----
2024-06-21 09:30 pmNNW 7.8 9.7 1.6 3- N-- 61.9 62.4----
2024-06-21 09:20 pmNNW 7.8 11.7 1.6 3- N-- 62.1 62.4----
2024-06-21 09:00 pm N 9.7 11.7 1.6 3- N-- 62.2 62.4----
2024-06-21 08:50 pmNNW 7.8 11.7 1.6 3- N-- 62.2 62.6----
2024-06-21 08:40 pm N 7.8 11.7 1.6 3- N-- 62.4 62.6----
2024-06-21 08:30 pm N 7.8 11.7 2.0 4- N-- 62.2 62.6----
2024-06-21 08:20 pmNNW 9.7 13.6 1.6 3- N-- 62.8 62.8----
2024-06-21 08:00 pmNNE 9.7 13.6 1.6 3- N-- 63.3 62.8----
2024-06-21 07:50 pm N 11.7 15.5 1.6 3- N-- 63.7 63.0----

Detailed Wave Summary
for 45187 as of
(8:20 pm CDT on 06/22/2024)
0120 GMT on 06/23/2024:

These wave data are displayed in rounded times.

     

Click on the graph icon in the table below to see a time series plot of the last five days of that observation.

5-day plot - Significant Wave Height Significant Wave Height (WVHT): 1.3 ft
Previous observations
TIME
(CDT)
5-day plot - Wave Height
WVHT
ft
5-day plot - Swell Height
SwH
ft
5-day plot - Swell Period
SwP
sec
5-day plot - Swell Direction
SwD
 
5-day plot - Wind Wave Height
WWH
ft
5-day plot - Wind Wave Period
WWP
sec
5-day plot - Wind Wave Direction
WWD
 
5-day plot - Wave Steepness
STEEPNESS
 
5-day plot - Average Wave Period
APD
sec
2024-06-22 08:10 pm 1.3------ N/A-
2024-06-22 07:50 pm 1.0------ N/A-
2024-06-22 07:40 pm 1.0------ N/A-
2024-06-22 07:30 pm 1.0------ N/A-
2024-06-22 07:20 pm 1.0------ N/A-
2024-06-22 07:10 pm 1.0------ N/A-
2024-06-22 06:50 pm 1.0------ N/A-
2024-06-22 06:40 pm 1.0------ N/A-
2024-06-22 06:30 pm 1.0------ N/A-
2024-06-22 06:20 pm 0.7------ N/A-
2024-06-22 06:10 pm 0.7------ N/A-
2024-06-22 05:50 pm 0.7------ N/A-
2024-06-22 05:40 pm 0.7------ N/A-
2024-06-22 05:30 pm 0.7------ N/A-
2024-06-22 05:20 pm 0.7------ N/A-
2024-06-22 05:10 pm 0.7------ N/A-
2024-06-22 04:50 pm 0.7------ N/A-
2024-06-22 04:40 pm 1.0------ N/A-
2024-06-22 04:30 pm 1.0------ N/A-
2024-06-22 04:20 pm 1.0------ N/A-
2024-06-22 04:10 pm 1.0------ N/A-
2024-06-22 03:50 pm 1.0------ N/A-
2024-06-22 03:40 pm 1.0------ N/A-
2024-06-22 03:30 pm 1.0------ N/A-
2024-06-22 03:20 pm 1.0------ N/A-
2024-06-22 03:10 pm 1.0------ N/A-
2024-06-22 02:50 pm 1.0------ N/A-
2024-06-22 02:40 pm 1.0------ N/A-
2024-06-22 02:30 pm 1.0------ N/A-
2024-06-22 02:20 pm 1.0------ N/A-
2024-06-22 02:10 pm 1.0------ N/A-
2024-06-22 01:50 pm 1.0------ N/A-
2024-06-22 01:40 pm 1.0------ N/A-
2024-06-22 01:30 pm 1.0------ N/A-
2024-06-22 01:20 pm 1.0------ N/A-
2024-06-22 01:10 pm 1.0------ N/A-
2024-06-22 12:50 pm 1.0------ N/A-
2024-06-22 12:40 pm 1.0------ N/A-
2024-06-22 12:30 pm 1.0------ N/A-
2024-06-22 12:20 pm 1.0------ N/A-
2024-06-22 12:10 pm 1.0------ N/A-
2024-06-22 11:50 am 1.0------ N/A-
2024-06-22 11:40 am 1.0------ N/A-
2024-06-22 11:30 am 0.7------ N/A-
2024-06-22 11:20 am 1.0------ N/A-
2024-06-22 11:10 am 1.0------ N/A-
2024-06-22 10:50 am 0.7------ N/A-
2024-06-22 10:40 am 1.0------ N/A-
2024-06-22 10:30 am 0.7------ N/A-
2024-06-22 10:20 am 1.0------ N/A-
2024-06-22 10:10 am 1.0------ N/A-
2024-06-22 09:50 am 1.0------ N/A-
2024-06-22 09:40 am 1.0------ N/A-
2024-06-22 09:30 am 1.0------ N/A-
2024-06-22 09:20 am 0.7------ N/A-
2024-06-22 09:10 am 0.7------ N/A-
2024-06-22 08:50 am 0.7------ N/A-
2024-06-22 08:40 am 0.7------ N/A-
2024-06-22 08:30 am 1.0------ N/A-
2024-06-22 08:20 am 0.7------ N/A-
2024-06-22 08:10 am 0.7------ N/A-
2024-06-22 07:50 am 0.7------ N/A-
2024-06-22 07:40 am 1.0------ N/A-
2024-06-22 07:30 am 0.7------ N/A-
2024-06-22 07:20 am 1.0------ N/A-
2024-06-22 07:10 am 1.0------ N/A-
2024-06-22 06:50 am 1.0------ N/A-
2024-06-22 06:40 am 1.0------ N/A-
2024-06-22 06:30 am 1.0------ N/A-
2024-06-22 06:20 am 1.0------ N/A-
2024-06-22 06:10 am 1.0------ N/A-
2024-06-22 05:50 am 1.3------ N/A-
2024-06-22 05:40 am 1.0------ N/A-
2024-06-22 05:30 am 1.0------ N/A-
2024-06-22 05:20 am 1.0------ N/A-
2024-06-22 05:10 am 1.0------ N/A-
2024-06-22 04:50 am 1.0------ N/A-
2024-06-22 04:40 am 1.0------ N/A-
2024-06-22 04:30 am 1.0------ N/A-
2024-06-22 04:20 am 1.0------ N/A-
2024-06-22 04:10 am 1.0------ N/A-
2024-06-22 03:50 am 1.0------ N/A-
2024-06-22 03:40 am 1.0------ N/A-
2024-06-22 03:30 am 1.0------ N/A-
2024-06-22 03:20 am 1.0------ N/A-
2024-06-22 03:10 am 1.0------ N/A-
2024-06-22 02:50 am 1.3------ N/A-
2024-06-22 02:40 am 1.3------ N/A-
2024-06-22 02:30 am 1.3------ N/A-
2024-06-22 02:20 am 1.3------ N/A-
2024-06-22 02:10 am 1.3------ N/A-
2024-06-22 01:50 am 1.3------ N/A-
2024-06-22 01:40 am 1.3------ N/A-
2024-06-22 01:30 am 1.3------ N/A-
2024-06-22 01:20 am 1.3------ N/A-
2024-06-22 01:00 am 1.3------ N/A-
2024-06-22 12:50 am 1.6------ N/A-
2024-06-22 12:40 am 1.6------ N/A-
2024-06-22 12:30 am 1.6------ N/A-
2024-06-22 12:20 am 1.3------ N/A-
2024-06-22 12:00 am 1.3------ N/A-
2024-06-21 11:50 pm 1.6------ N/A-
2024-06-21 11:40 pm 1.6------ N/A-
2024-06-21 11:30 pm 1.6------ N/A-
2024-06-21 11:20 pm 1.6------ N/A-
2024-06-21 11:00 pm 1.6------ N/A-
2024-06-21 10:50 pm 1.3------ N/A-
2024-06-21 10:40 pm 1.3------ N/A-
2024-06-21 10:30 pm 1.3------ N/A-
2024-06-21 10:20 pm 1.3------ N/A-
2024-06-21 10:00 pm 1.6------ N/A-
2024-06-21 09:50 pm 1.3------ N/A-
2024-06-21 09:40 pm 1.6------ N/A-
2024-06-21 09:30 pm 1.6------ N/A-
2024-06-21 09:20 pm 1.6------ N/A-
2024-06-21 09:00 pm 1.6------ N/A-
2024-06-21 08:50 pm 1.6------ N/A-
2024-06-21 08:40 pm 1.6------ N/A-
2024-06-21 08:30 pm 2.0------ N/A-
2024-06-21 08:20 pm 1.6------ N/A-
2024-06-21 08:00 pm 1.6------ N/A-
2024-06-21 07:50 pm 1.6------ N/A-

Disclaimer: Ocean current directions are reported to the nearest 10 degrees and speeds are measured to the nearest whole centimeter per second.

Ocean Current Data for 45187

Unit of Measure:   Time Zone:   
8:20 pm CDT 8:10 pm CDT 7:50 pm CDT 7:40 pm CDT 7:30 pm CDT 7:20 pm CDT 7:10 pm CDT 6:50 pm CDT
Depth
ft
Dir
°
Speed
kts
Dir
°
Speed
kts
Dir
°
Speed
kts
Dir
°
Speed
kts
Dir
°
Speed
kts
Dir
°
Speed
kts
Dir
°
Speed
kts
Dir
°
Speed
kts
7 10 0.12 20 0.16 50 0.10350 0.10 10 0.10 40 0.06 70 0.10 90 0.06

Previous (up to 48) reports of ocean current data for 45187

Ocean Current Stick Plots are available in metric units only:

All Instruments - 1-day plot - ocean current 1-day plot     3-day plot - ocean current 3-day plot     5-day plot - ocean current 5-day plot